Time;durP1;ratioP1;P1;durP2;ratioP2;P2;SDS_P1;SDS_P2;PMS_P1;PMS_P2;Temp;Humidity;BMP_temperature;BMP_pressure;BME280_temperature;BME280_humidity;BME280_pressure;Samples;Min_cycle;Max_cycle;Signal;HPM_P1;HPM_P2
2021/12/12 00:02:33;;;;;;;;;;;4.00;99.90;;;;;;5100138;28;19945;-88
2021/12/12 00:05:06;;;;;;;;;;;4.00;99.90;;;;;;5083238;28;19920;-88
2021/12/12 00:07:35;;;;;;;;;;;4.00;99.90;;;;;;5099437;28;19926;-88
2021/12/12 00:10:04;;;;;;;;;;;4.00;99.90;;;;;;5098784;28;20306;-88
2021/12/12 00:12:30;;;;;;;;;;;3.90;99.90;;;;;;5099509;28;20002;-87
2021/12/12 00:14:56;;;;;;;;;;;4.00;99.90;;;;;;5082265;28;19920;-88
2021/12/12 00:17:22;;;;;;;;;;;4.00;99.90;;;;;;5098911;28;19920;-88
2021/12/12 00:19:48;;;;;;;;;;;4.00;99.90;;;;;;5078089;28;19939;-88
2021/12/12 00:22:17;;;;;;;;;;;4.00;99.90;;;;;;5095538;28;19920;-87
2021/12/12 00:24:45;;;;;;;;;;;4.10;99.90;;;;;;5095124;28;20011;-89
2021/12/12 00:27:14;;;;;;;;;;;4.00;99.90;;;;;;5078740;28;19928;-88
2021/12/12 00:29:43;;;;;;;;;;;4.00;99.90;;;;;;5094612;28;20344;-87
2021/12/12 00:32:10;;;;;;;;;;;4.10;99.90;;;;;;5095330;28;20003;-88
2021/12/12 00:34:39;;;;;;;;;;;4.10;99.90;;;;;;5078033;28;19920;-87
2021/12/12 00:37:08;;;;;;;;;;;4.10;99.90;;;;;;5110203;28;19920;-88
2021/12/12 00:39:35;;;;;;;;;;;4.10;99.90;;;;;;5098186;28;19957;-87
2021/12/12 00:42:04;;;;;;;;;;;4.10;99.90;;;;;;5098215;28;19927;-88
2021/12/12 00:44:30;;;;;;;;;;;4.20;99.90;;;;;;5081798;28;20002;-88
2021/12/12 00:46:57;;;;;;;;;;;4.10;99.90;;;;;;5097730;28;20022;-88
2021/12/12 00:49:22;;;;;;;;;;;4.10;99.90;;;;;;5081275;28;19920;-88
2021/12/12 00:51:48;;;;;;;;;;;4.20;99.90;;;;;;5097843;28;19938;-88
2021/12/12 00:54:14;;;;;;;;;;;4.20;99.90;;;;;;5077532;28;20345;-88
2021/12/12 00:56:40;;;;;;;;;;;4.20;99.90;;;;;;5077558;28;19963;-88
2021/12/12 00:59:05;;;;;;;;;;;4.20;99.90;;;;;;5094308;28;20028;-88
2021/12/12 01:01:34;;;;;;;;;;;4.10;99.90;;;;;;5077327;28;19920;-88
2021/12/12 01:04:01;;;;;;;;;;;4.30;99.90;;;;;;5094167;28;19927;-88
2021/12/12 01:06:27;;;;;;;;;;;4.20;99.90;;;;;;5077598;28;19967;-88
2021/12/12 01:08:55;;;;;;;;;;;4.30;99.90;;;;;;5077275;28;19927;-88
2021/12/12 01:11:26;;;;;;;;;;;4.30;99.90;;;;;;5078710;28;19920;-88
2021/12/12 01:13:52;;;;;;;;;;;4.30;99.90;;;;;;5094007;28;19920;-87
2021/12/12 01:16:20;;;;;;;;;;;4.20;99.90;;;;;;5077162;28;19935;-88
2021/12/12 01:18:47;;;;;;;;;;;4.30;99.90;;;;;;5110896;28;19920;-88
2021/12/12 01:21:24;;;;;;;;;;;4.30;99.90;;;;;;5077591;28;19997;-88
2021/12/12 01:23:55;;;;;;;;;;;4.30;99.90;;;;;;5077111;28;19971;-88
2021/12/12 01:26:29;;;;;;;;;;;4.30;99.90;;;;;;5094313;28;19920;-87
2021/12/12 01:28:55;;;;;;;;;;;4.30;99.90;;;;;;5081311;28;19924;-87
2021/12/12 01:31:24;;;;;;;;;;;4.30;99.90;;;;;;5097426;28;20368;-88
2021/12/12 01:33:58;;;;;;;;;;;4.30;99.90;;;;;;5080859;28;19927;-88
2021/12/12 01:36:28;;;;;;;;;;;4.30;99.90;;;;;;5081554;28;20368;-88
2021/12/12 01:38:56;;;;;;;;;;;4.30;99.90;;;;;;5097578;28;19971;-88
2021/12/12 01:41:30;;;;;;;;;;;4.40;99.90;;;;;;5097865;28;19924;-88
2021/12/12 01:44:01;;;;;;;;;;;4.30;99.90;;;;;;5079969;28;19975;-89
2021/12/12 01:46:29;;;;;;;;;;;4.30;99.90;;;;;;5080683;28;19984;-87
2021/12/12 01:48:58;;;;;;;;;;;4.40;99.90;;;;;;5079826;28;19973;-87
2021/12/12 01:51:29;;;;;;;;;;;4.30;99.90;;;;;;5114197;28;19927;-87
2021/12/12 01:53:59;;;;;;;;;;;4.30;99.90;;;;;;5097086;28;19919;-88
2021/12/12 01:56:29;;;;;;;;;;;4.30;99.90;;;;;;5080178;28;20253;-88
2021/12/12 01:59:01;;;;;;;;;;;4.30;99.90;;;;;;5081006;28;19931;-88
2021/12/12 02:01:40;;;;;;;;;;;4.30;99.90;;;;;;5114017;28;19927;-88
2021/12/12 02:04:16;;;;;;;;;;;4.40;99.90;;;;;;5080670;28;19963;-87
2021/12/12 02:06:42;;;;;;;;;;;4.40;99.90;;;;;;5097122;28;19927;-87
2021/12/12 02:09:10;;;;;;;;;;;4.40;99.90;;;;;;5079318;28;20023;-88
2021/12/12 02:11:46;;;;;;;;;;;4.40;99.90;;;;;;5096308;28;19930;-90
2021/12/12 02:14:14;;;;;;;;;;;4.50;99.90;;;;;;5113536;28;19920;-88
2021/12/12 02:16:45;;;;;;;;;;;4.60;99.90;;;;;;5096640;28;19927;-88
2021/12/12 02:19:11;;;;;;;;;;;4.60;99.90;;;;;;5096400;28;19974;-88
2021/12/12 02:21:51;;;;;;;;;;;4.50;99.90;;;;;;5096315;28;19962;-87
2021/12/12 02:37:51;;;;;;;;;;;4.60;99.90;;;;;;5096787;28;19923;-88
2021/12/12 02:40:22;;;;;;;;;;;4.60;99.90;;;;;;5079430;28;19924;-88
2021/12/12 02:42:50;;;;;;;;;;;4.60;99.90;;;;;;5096388;28;19992;-88
2021/12/12 02:45:17;;;;;;;;;;;4.60;99.90;;;;;;5095362;28;19920;-87
2021/12/12 02:47:45;;;;;;;;;;;4.60;99.90;;;;;;5079100;28;19924;-88
2021/12/12 02:50:13;;;;;;;;;;;4.60;99.90;;;;;;5095482;28;19981;-88
2021/12/12 02:52:42;;;;;;;;;;;4.60;99.90;;;;;;5096002;28;19949;-88
2021/12/12 02:55:14;;;;;;;;;;;4.60;99.90;;;;;;5078625;28;19923;-88
2021/12/12 02:57:42;;;;;;;;;;;4.60;99.90;;;;;;5112787;28;19924;-87
2021/12/12 03:00:11;;;;;;;;;;;4.60;99.90;;;;;;5078874;28;19924;-89
2021/12/12 03:02:45;;;;;;;;;;;4.70;99.90;;;;;;5096269;28;20306;-88
2021/12/12 03:05:14;;;;;;;;;;;4.60;99.90;;;;;;5080587;28;19924;-88
2021/12/12 03:07:43;;;;;;;;;;;4.70;99.90;;;;;;5095485;28;20007;-88
2021/12/12 03:10:19;;;;;;;;;;;4.70;99.90;;;;;;5095299;28;20002;-88
2021/12/12 03:12:52;;;;;;;;;;;4.60;99.90;;;;;;5080241;28;19920;-88
2021/12/12 03:15:19;;;;;;;;;;;4.70;99.90;;;;;;5096892;28;20294;-88
2021/12/12 03:17:48;;;;;;;;;;;4.70;99.90;;;;;;5112706;28;19927;-89
2021/12/12 03:20:27;;;;;;;;;;;4.80;99.90;;;;;;5095239;28;19973;-89
2021/12/12 03:22:59;;;;;;;;;;;4.70;99.90;;;;;;5096310;28;19920;-89
2021/12/12 03:25:32;;;;;;;;;;;4.70;99.90;;;;;;5079785;28;19924;-88
2021/12/12 03:27:58;;;;;;;;;;;4.80;99.90;;;;;;5094564;28;19924;-88
2021/12/12 03:30:26;;;;;;;;;;;4.70;99.90;;;;;;5078725;28;19965;-88
2021/12/12 03:32:51;;;;;;;;;;;4.70;99.90;;;;;;5078755;28;20030;-87
2021/12/12 03:35:19;;;;;;;;;;;4.70;99.90;;;;;;5094760;28;19971;-88
2021/12/12 03:37:50;;;;;;;;;;;4.70;99.90;;;;;;5095935;28;19920;-89
2021/12/12 03:40:22;;;;;;;;;;;4.80;99.90;;;;;;5079042;28;19924;-88
2021/12/12 03:42:50;;;;;;;;;;;4.80;99.90;;;;;;5078369;28;20470;-88
2021/12/12 03:45:21;;;;;;;;;;;4.70;99.90;;;;;;5094915;28;20139;-88
2021/12/12 03:47:50;;;;;;;;;;;4.90;99.90;;;;;;5078694;28;19964;-87
2021/12/12 03:50:18;;;;;;;;;;;4.80;99.90;;;;;;5078485;28;19920;-88
2021/12/12 03:52:46;;;;;;;;;;;4.80;99.90;;;;;;5078523;28;19920;-87
2021/12/12 03:55:14;;;;;;;;;;;4.80;99.90;;;;;;5078187;28;19920;-88
2021/12/12 03:57:50;;;;;;;;;;;4.90;99.90;;;;;;5078499;28;20320;-89
2021/12/12 04:00:17;;;;;;;;;;;4.90;99.90;;;;;;5076030;28;19946;-88
2021/12/12 04:02:45;;;;;;;;;;;4.80;99.90;;;;;;5074123;28;20011;-88
2021/12/12 04:05:11;;;;;;;;;;;4.90;99.90;;;;;;5074872;28;19920;-90
2021/12/12 04:07:39;;;;;;;;;;;4.90;99.90;;;;;;5057855;28;19947;-88
2021/12/12 04:10:15;;;;;;;;;;;;;;;;;;;;;
2021/12/12 04:12:44;;;;;;;;;;;4.80;99.90;;;;;;5091595;28;19924;-89
2021/12/12 04:15:10;;;;;;;;;;;4.90;99.90;;;;;;5074804;28;20034;-88
2021/12/12 04:17:38;;;;;;;;;;;4.80;99.90;;;;;;5091366;28;20018;-88
2021/12/12 04:20:30;;;;;;;;;;;4.80;99.90;;;;;;5074298;28;19964;-88
2021/12/12 04:22:58;;;;;;;;;;;4.80;99.90;;;;;;5088541;28;19920;-88
2021/12/12 04:25:24;;;;;;;;;;;4.90;99.90;;;;;;5074449;28;19927;-90
2021/12/12 04:27:50;;;;;;;;;;;4.80;99.90;;;;;;5091074;28;19920;-88
2021/12/12 04:30:18;;;;;;;;;;;4.90;99.90;;;;;;5074384;28;19997;-89
2021/12/12 04:32:46;;;;;;;;;;;4.80;99.90;;;;;;5091469;28;19920;-88
2021/12/12 04:35:26;;;;;;;;;;;;;;;;;;;;;
2021/12/12 04:37:53;;;;;;;;;;;4.90;99.90;;;;;;5100156;28;20268;-89
2021/12/12 04:40:21;;;;;;;;;;;4.80;99.90;;;;;;5098329;28;20350;-90
2021/12/12 04:42:49;;;;;;;;;;;4.90;99.90;;;;;;5098930;28;19923;-89
2021/12/12 04:45:36;;;;;;;;;;;4.90;99.90;;;;;;5098345;28;19972;-88
2021/12/12 04:50:53;;;;;;;;;;;4.90;99.90;;;;;;5100871;28;19989;-88
2021/12/12 04:53:39;;;;;;;;;;;5.00;99.90;;;;;;5098182;28;20389;-88
2021/12/12 04:56:20;;;;;;;;;;;4.90;99.90;;;;;;5081840;28;19920;-88
2021/12/12 04:58:49;;;;;;;;;;;4.90;99.90;;;;;;5098473;28;19920;-88
2021/12/12 05:01:20;;;;;;;;;;;5.00;99.90;;;;;;5097903;28;20294;-88
2021/12/12 05:03:49;;;;;;;;;;;4.90;99.90;;;;;;5114933;28;19920;-89
2021/12/12 05:06:26;;;;;;;;;;;5.00;99.90;;;;;;5097635;28;19920;-90
2021/12/12 05:09:20;;;;;;;;;;;5.00;99.90;;;;;;5097460;28;19920;-88
2021/12/12 05:12:04;;;;;;;;;;;4.90;99.90;;;;;;5097989;28;19926;-89
2021/12/12 05:14:47;;;;;;;;;;;5.00;99.90;;;;;;5098296;28;20393;-89
2021/12/12 05:17:17;;;;;;;;;;;5.10;99.90;;;;;;5082073;28;20014;-89
2021/12/12 05:20:03;;;;;;;;;;;5.20;99.90;;;;;;5080567;28;19920;-89
2021/12/12 05:22:39;;;;;;;;;;;5.10;99.90;;;;;;5113074;28;19924;-88
2021/12/12 05:25:06;;;;;;;;;;;5.10;99.90;;;;;;5077513;28;19943;-88
2021/12/12 05:27:34;;;;;;;;;;;5.20;99.90;;;;;;5076500;28;19920;-88
2021/12/12 05:30:03;;;;;;;;;;;5.10;99.90;;;;;;5077742;28;19920;-88
2021/12/12 05:32:31;;;;;;;;;;;5.20;99.90;;;;;;5076802;28;19920;-89
2021/12/12 05:34:56;;;;;;;;;;;5.10;99.90;;;;;;5077631;28;20240;-90
2021/12/12 05:37:22;;;;;;;;;;;5.20;99.90;;;;;;5093679;28;19927;-88
2021/12/12 05:39:59;;;;;;;;;;;5.20;99.90;;;;;;5077084;28;20015;-88
2021/12/12 05:42:28;;;;;;;;;;;5.20;99.90;;;;;;5094194;28;20363;-88
2021/12/12 05:44:54;;;;;;;;;;;5.20;99.90;;;;;;5077005;28;20372;-88
2021/12/12 05:47:19;;;;;;;;;;;5.20;99.90;;;;;;5112230;28;19941;-87
2021/12/12 05:49:48;;;;;;;;;;;5.20;99.90;;;;;;5080204;28;19919;-88
2021/12/12 05:52:16;;;;;;;;;;;5.30;99.90;;;;;;5097224;28;19962;-87
2021/12/12 05:54:45;;;;;;;;;;;5.20;99.90;;;;;;5097482;28;19968;-89
2021/12/12 05:57:11;;;;;;;;;;;5.20;99.90;;;;;;5080174;28;19936;-87
2021/12/12 05:59:42;;;;;;;;;;;5.40;99.90;;;;;;5093095;28;19920;-90
2021/12/12 06:02:08;;;;;;;;;;;5.50;99.90;;;;;;5076898;28;19924;-88
2021/12/12 06:04:43;;;;;;;;;;;;;;;;;;;;;
2021/12/12 06:07:13;;;;;;;;;;;5.30;99.90;;;;;;5098558;28;20305;-87
2021/12/12 06:09:49;;;;;;;;;;;5.50;99.90;;;;;;5080303;28;19924;-88
2021/12/12 06:12:20;;;;;;;;;;;5.30;99.90;;;;;;5113763;28;20268;-89
2021/12/12 06:14:51;;;;;;;;;;;5.40;99.90;;;;;;5097342;28;19939;-88
2021/12/12 06:17:22;;;;;;;;;;;5.60;99.90;;;;;;5076507;28;19920;-87
2021/12/12 06:19:47;;;;;;;;;;;5.60;99.90;;;;;;5077376;28;19924;-86
2021/12/12 06:22:13;;;;;;;;;;;5.50;99.90;;;;;;5076567;28;19920;-87
2021/12/12 06:24:49;;;;;;;;;;;;;;;;;;;;;
2021/12/12 06:27:16;;;;;;;;;;;5.60;99.90;;;;;;5077295;28;19920;-87
2021/12/12 06:30:14;;;;;;;;;;;5.60;99.90;;;;;;5094368;28;20252;-87
2021/12/12 06:32:53;;;;;;;;;;;5.70;99.90;;;;;;5084519;28;19926;-89
2021/12/12 06:35:24;;;;;;;;;;;5.70;99.90;;;;;;5079724;28;20374;-88
2021/12/12 06:37:52;;;;;;;;;;;5.50;99.90;;;;;;5096627;28;20351;-87
2021/12/12 06:40:21;;;;;;;;;;;5.60;99.90;;;;;;5096376;28;19973;-89
2021/12/12 06:42:49;;;;;;;;;;;5.50;99.90;;;;;;5096891;28;20267;-87
2021/12/12 06:45:18;;;;;;;;;;;5.60;99.90;;;;;;5080326;27;19920;-87
2021/12/12 06:47:43;;;;;;;;;;;5.60;99.90;;;;;;5116681;27;19923;-86
2021/12/12 06:50:09;;;;;;;;;;;5.80;99.90;;;;;;5088824;28;19965;-86
2021/12/12 06:52:35;;;;;;;;;;;5.80;99.90;;;;;;5075353;28;19971;-87
2021/12/12 06:55:22;;;;;;;;;;;5.80;99.90;;;;;;5076032;28;19927;-89
2021/12/12 06:57:49;;;;;;;;;;;5.60;99.90;;;;;;5078085;28;20293;-87
2021/12/12 07:00:20;;;;;;;;;;;5.70;99.90;;;;;;5076771;28;20257;-87
2021/12/12 07:02:45;;;;;;;;;;;5.80;99.90;;;;;;5075559;28;19965;-88
2021/12/12 07:05:23;;;;;;;;;;;5.80;99.90;;;;;;5075543;28;20003;-87
2021/12/12 07:07:50;;;;;;;;;;;5.80;99.90;;;;;;5088479;28;19923;-88
2021/12/12 07:10:21;;;;;;;;;;;5.90;99.90;;;;;;5095743;28;19927;-87
2021/12/12 07:12:55;;;;;;;;;;;5.70;99.90;;;;;;5096014;28;19931;-86
2021/12/12 07:15:23;;;;;;;;;;;5.90;99.90;;;;;;5079780;28;20015;-86
2021/12/12 07:17:48;;;;;;;;;;;5.90;99.90;;;;;;5095761;28;20348;-88
2021/12/12 07:20:42;;;;;;;;;;;5.80;99.90;;;;;;5096069;28;19919;-89
2021/12/12 07:23:13;;;;;;;;;;;5.90;99.90;;;;;;5096221;28;20279;-89
2021/12/12 07:25:42;;;;;;;;;;;5.90;99.90;;;;;;5075088;28;19927;-88
2021/12/12 07:28:16;;;;;;;;;;;5.80;99.90;;;;;;5092528;28;20291;-89
2021/12/12 07:30:44;;;;;;;;;;;5.80;99.90;;;;;;5075528;28;19920;-89
2021/12/12 07:33:12;;;;;;;;;;;5.90;99.90;;;;;;5075956;28;19920;-87
2021/12/12 07:35:45;;;;;;;;;;;5.80;99.90;;;;;;5075164;28;19920;-89
2021/12/12 07:38:22;;;;;;;;;;;6.00;99.90;;;;;;5092299;28;19928;-91
2021/12/12 07:40:50;;;;;;;;;;;6.00;99.90;;;;;;5095506;28;19923;-90
2021/12/12 07:46:22;;;;;;;;;;;5.90;99.90;;;;;;5097219;28;19919;-88
2021/12/12 07:49:19;;;;;;;;;;;6.00;99.90;;;;;;5078019;28;19977;-89
2021/12/12 07:52:25;;;;;;;;;;;6.10;99.90;;;;;;5095178;28;19924;-89
2021/12/12 07:54:51;;;;;;;;;;;6.00;99.90;;;;;;5096433;28;20003;-90
2021/12/12 07:57:19;;;;;;;;;;;6.10;99.90;;;;;;5095678;28;19920;-89
2021/12/12 07:59:54;;;;;;;;;;;;;;;;;;;;;
2021/12/12 08:02:21;;;;;;;;;;;5.90;99.90;;;;;;5096609;28;19926;-89
2021/12/12 08:04:58;;;;;;;;;;;6.10;99.90;;;;;;5078344;28;20274;-90
2021/12/12 08:07:34;;;;;;;;;;;6.10;99.90;;;;;;5096838;28;19999;-89
2021/12/12 08:10:11;;;;;;;;;;;6.20;99.90;;;;;;5088575;28;20011;-91
2021/12/12 08:15:33;;;;;;;;;;;6.10;99.90;;;;;;5083242;28;19920;-93
2021/12/12 08:18:35;;;;;;;;;;;6.20;99.90;;;;;;5101517;28;20282;-93
2021/12/12 08:21:26;;;;;;;;;;;;;;;;;;;;;
2021/12/12 08:24:09;;;;;;;;;;;6.10;99.90;;;;;;5116636;28;19920;-92
2021/12/12 08:27:05;;;;;;;;;;;;;;;;;;;;;
2021/12/12 08:30:07;;;;;;;;;;;6.30;99.90;;;;;;5095643;28;19943;-90
2021/12/12 08:32:43;;;;;;;;;;;6.20;99.90;;;;;;5064875;28;19927;-90
2021/12/12 08:35:17;;;;;;;;;;;6.30;99.90;;;;;;5095375;28;20053;-90
2021/12/12 08:38:04;;;;;;;;;;;6.20;99.90;;;;;;5079259;28;19927;-89
2021/12/12 08:40:42;;;;;;;;;;;6.40;99.90;;;;;;5062181;28;20267;-89
2021/12/12 08:43:15;;;;;;;;;;;6.40;99.90;;;;;;5061969;28;19988;-92
2021/12/12 08:45:55;;;;;;;;;;;;;;;;;;;;;
2021/12/12 08:48:44;;;;;;;;;;;6.30;99.90;;;;;;5085937;28;19955;-93
2021/12/12 08:51:42;;;;;;;;;;;6.40;99.90;;;;;;5063862;28;19924;-92
2021/12/12 08:54:23;;;;;;;;;;;6.50;99.90;;;;;;5086630;28;19924;-89
2021/12/12 08:56:54;;;;;;;;;;;6.50;99.90;;;;;;5072743;28;19999;-90
2021/12/12 08:59:26;;;;;;;;;;;6.50;99.90;;;;;;5058150;28;19925;-90
2021/12/12 09:01:57;;;;;;;;;;;6.60;99.90;;;;;;5096622;28;19924;-89
2021/12/12 09:04:28;;;;;;;;;;;6.60;99.90;;;;;;5075748;28;19930;-90
2021/12/12 09:07:06;;;;;;;;;;;6.60;99.90;;;;;;5057951;28;20303;-90
2021/12/12 09:09:49;;;;;;;;;;;6.60;99.90;;;;;;5083274;28;19927;-90
2021/12/12 09:12:36;;;;;;;;;;;6.70;99.90;;;;;;5087054;28;19935;-93
2021/12/12 09:15:10;;;;;;;;;;;6.70;99.90;;;;;;5065740;28;20007;-87
2021/12/12 09:17:41;;;;;;;;;;;6.80;99.90;;;;;;5067560;28;20007;-87
2021/12/12 09:20:16;;;;;;;;;;;6.80;99.90;;;;;;5077263;28;19935;-86
2021/12/12 09:22:55;;;;;;;;;;;6.80;99.90;;;;;;5093063;28;19932;-86
2021/12/12 09:25:24;;;;;;;;;;;6.80;99.90;;;;;;5061508;28;19924;-84
2021/12/12 09:27:54;;;;;;;;;;;6.90;99.90;;;;;;5100449;28;20437;-85
2021/12/12 09:30:23;;;;;;;;;;;6.90;99.90;;;;;;5113941;28;19973;-84
2021/12/12 09:32:55;;;;;;;;;;;6.90;99.90;;;;;;5096823;28;19931;-84
2021/12/12 09:35:31;;;;;;;;;;;6.80;99.90;;;;;;5097047;28;19923;-84
2021/12/12 09:38:16;;;;;;;;;;;7.00;99.90;;;;;;5097212;28;19930;-84
2021/12/12 09:40:44;;;;;;;;;;;6.90;99.90;;;;;;5096503;28;20375;-84
2021/12/12 09:43:20;;;;;;;;;;;7.10;99.90;;;;;;5097481;28;19969;-85
2021/12/12 09:45:45;;;;;;;;;;;7.00;99.90;;;;;;5113754;28;19923;-84
2021/12/12 09:51:14;;;;;;;;;;;7.10;99.90;;;;;;5114092;28;20010;-85
2021/12/12 09:51:17;;;;;;;;;;;7.00;99.90;;;;;;5099253;28;19974;-84
2021/12/12 09:53:43;;;;;;;;;;;7.20;99.90;;;;;;5098799;28;19931;-84
2021/12/12 09:56:12;;;;;;;;;;;7.10;99.90;;;;;;5113232;28;19924;-84
2021/12/12 09:58:44;;;;;;;;;;;7.20;99.90;;;;;;5113596;28;19953;-84
2021/12/12 10:01:37;;;;;;;;;;;7.30;99.90;;;;;;5079924;28;19931;-84
2021/12/12 10:04:12;;;;;;;;;;;7.30;99.90;;;;;;5112844;28;19977;-85
2021/12/12 10:06:43;;;;;;;;;;;7.30;99.90;;;;;;5113628;28;19967;-85
2021/12/12 10:09:10;;;;;;;;;;;7.40;99.90;;;;;;5095419;28;19972;-84
2021/12/12 10:11:42;;;;;;;;;;;7.50;99.90;;;;;;5096291;28;20364;-84
2021/12/12 10:14:18;;;;;;;;;;;7.50;99.90;;;;;;5096493;28;20283;-85
2021/12/12 10:16:55;;;;;;;;;;;7.50;99.90;;;;;;5096713;28;19924;-84
2021/12/12 10:19:27;;;;;;;;;;;7.50;99.90;;;;;;5096822;28;20021;-85
2021/12/12 10:21:57;;;;;;;;;;;7.70;99.90;;;;;;5096019;28;20024;-84
2021/12/12 10:24:39;;;;;;;;;;;7.80;99.90;;;;;;5096570;28;19924;-84
2021/12/12 10:27:15;;;;;;;;;;;7.70;99.90;;;;;;5112700;28;20006;-85
2021/12/12 10:29:53;;;;;;;;;;;7.80;99.90;;;;;;5095859;28;20368;-85
2021/12/12 10:32:20;;;;;;;;;;;7.80;99.90;;;;;;5095629;28;19923;-85
2021/12/12 10:34:56;;;;;;;;;;;7.70;99.90;;;;;;5096122;28;19927;-85
2021/12/12 10:37:22;;;;;;;;;;;7.80;99.90;;;;;;5097081;28;20376;-84
2021/12/12 10:39:58;;;;;;;;;;;7.80;99.90;;;;;;5079171;28;20014;-85
2021/12/12 10:42:42;;;;;;;;;;;8.00;99.90;;;;;;5096086;28;19938;-84
2021/12/12 10:45:09;;;;;;;;;;;8.00;99.90;;;;;;5111751;28;20264;-85
2021/12/12 10:47:57;;;;;;;;;;;8.00;99.90;;;;;;5095585;28;19924;-84
2021/12/12 10:50:36;;;;;;;;;;;8.00;99.90;;;;;;5113059;28;20002;-84
2021/12/12 10:53:04;;;;;;;;;;;8.10;99.90;;;;;;5095438;28;19924;-84
2021/12/12 10:55:40;;;;;;;;;;;8.10;99.90;;;;;;5112839;28;19972;-84
2021/12/12 10:58:12;;;;;;;;;;;8.10;99.90;;;;;;5095787;28;19924;-84
2021/12/12 11:00:47;;;;;;;;;;;8.10;99.90;;;;;;5096209;28;19923;-85
2021/12/12 11:03:18;;;;;;;;;;;8.10;99.90;;;;;;5095589;28;19924;-84
2021/12/12 11:05:48;;;;;;;;;;;8.20;99.90;;;;;;5079137;28;19931;-84
2021/12/12 11:08:22;;;;;;;;;;;8.10;99.90;;;;;;5112153;28;19924;-85
2021/12/12 11:10:48;;;;;;;;;;;8.30;99.90;;;;;;5079151;28;20273;-85
2021/12/12 11:13:20;;;;;;;;;;;8.20;99.90;;;;;;5078369;28;19928;-84
2021/12/12 11:16:01;;;;;;;;;;;8.20;99.90;;;;;;5079131;28;20317;-84
2021/12/12 11:18:35;;;;;;;;;;;8.30;99.90;;;;;;5095548;28;20395;-86
2021/12/12 11:21:19;;;;;;;;;;;8.30;99.90;;;;;;5077979;28;19924;-85
2021/12/12 11:23:50;;;;;;;;;;;8.40;99.90;;;;;;5112039;28;19972;-85
2021/12/12 11:26:20;;;;;;;;;;;8.30;99.90;;;;;;5094969;28;19931;-85
2021/12/12 11:28:58;;;;;;;;;;;8.50;99.90;;;;;;5095458;28;19930;-85
2021/12/12 11:31:31;;;;;;;;;;;8.50;99.90;;;;;;5096269;28;19931;-85
2021/12/12 11:33:57;;;;;;;;;;;8.50;99.90;;;;;;5111149;28;19985;-85
2021/12/12 11:36:24;;;;;;;;;;;8.50;99.90;;;;;;5094975;28;20024;-85
2021/12/12 11:39:05;;;;;;;;;;;8.40;99.90;;;;;;5094850;28;20018;-85
2021/12/12 11:41:38;;;;;;;;;;;8.40;99.90;;;;;;5112099;28;20387;-85
2021/12/12 11:44:13;;;;;;;;;;;8.40;99.90;;;;;;5097238;28;20317;-84
2021/12/12 11:46:47;;;;;;;;;;;8.50;99.90;;;;;;5082451;28;19931;-85
2021/12/12 11:49:19;;;;;;;;;;;8.50;99.90;;;;;;5083228;28;20086;-85
2021/12/12 11:51:48;;;;;;;;;;;8.50;99.90;;;;;;5082791;28;19923;-84
2021/12/12 11:54:23;;;;;;;;;;;8.60;99.90;;;;;;5098733;28;19947;-85
2021/12/12 11:56:50;;;;;;;;;;;8.60;99.90;;;;;;5099344;28;20283;-85
2021/12/12 11:59:16;;;;;;;;;;;8.60;99.90;;;;;;5098498;28;19924;-84
2021/12/12 12:01:57;;;;;;;;;;;8.60;99.90;;;;;;5098852;28;19924;-84
2021/12/12 12:04:41;;;;;;;;;;;8.60;99.90;;;;;;5098614;28;19930;-84
2021/12/12 12:07:11;;;;;;;;;;;8.50;99.90;;;;;;5098510;28;19934;-84
2021/12/12 12:09:54;;;;;;;;;;;8.60;99.90;;;;;;5098812;28;19928;-84
2021/12/12 12:12:22;;;;;;;;;;;8.50;99.90;;;;;;5098449;28;20318;-84
2021/12/12 12:14:56;;;;;;;;;;;8.60;99.90;;;;;;5098963;28;19938;-84
2021/12/12 12:17:40;;;;;;;;;;;8.60;99.90;;;;;;5098165;28;19931;-84
2021/12/12 12:20:12;;;;;;;;;;;8.60;99.90;;;;;;5098170;28;19924;-84
2021/12/12 12:22:37;;;;;;;;;;;8.60;99.90;;;;;;5098588;28;19980;-84
2021/12/12 12:25:18;;;;;;;;;;;8.70;99.90;;;;;;5115178;28;19923;-85
2021/12/12 12:27:46;;;;;;;;;;;8.70;99.90;;;;;;5082348;28;19923;-85
2021/12/12 12:30:35;;;;;;;;;;;8.70;99.90;;;;;;5081322;28;20467;-84
2021/12/12 12:33:06;;;;;;;;;;;8.80;99.90;;;;;;5115443;28;19923;-84
2021/12/12 12:35:51;;;;;;;;;;;8.80;99.90;;;;;;5115661;28;20391;-84
2021/12/12 12:38:49;;;;;;;;;;;8.80;99.90;;;;;;5115372;28;19947;-84
2021/12/12 12:41:33;;;;;;;;;;;8.80;99.90;;;;;;5075354;28;20026;-84
2021/12/12 12:44:17;;;;;;;;;;;8.80;99.90;;;;;;5116436;28;19931;-84
2021/12/12 12:47:04;;;;;;;;;;;8.90;99.90;;;;;;5098523;28;20272;-84
2021/12/12 12:49:49;;;;;;;;;;;8.90;99.90;;;;;;5098694;28;19923;-85
2021/12/12 12:52:14;;;;;;;;;;;8.90;99.90;;;;;;5098040;28;19930;-84
2021/12/12 12:54:45;;;;;;;;;;;8.90;99.90;;;;;;5097634;28;19923;-84
2021/12/12 12:57:19;;;;;;;;;;;8.90;99.90;;;;;;5097701;28;19924;-84
2021/12/12 12:59:51;;;;;;;;;;;8.90;99.90;;;;;;5098391;28;19924;-84
2021/12/12 13:02:20;;;;;;;;;;;8.90;99.90;;;;;;5097675;28;19977;-84
2021/12/12 13:05:04;;;;;;;;;;;9.00;99.90;;;;;;5115278;28;19931;-84
2021/12/12 13:07:49;;;;;;;;;;;9.00;99.90;;;;;;5114575;28;20276;-84
2021/12/12 13:10:18;;;;;;;;;;;9.00;99.90;;;;;;5097671;28;20010;-85
2021/12/12 13:12:52;;;;;;;;;;;9.00;99.90;;;;;;5097980;28;19973;-84
2021/12/12 13:15:24;;;;;;;;;;;9.10;99.90;;;;;;5097558;28;19923;-84
2021/12/12 13:17:53;;;;;;;;;;;9.10;99.90;;;;;;5098401;28;19965;-85
2021/12/12 13:20:27;;;;;;;;;;;9.20;99.90;;;;;;5115177;27;19930;-85
2021/12/12 13:23:02;;;;;;;;;;;9.10;99.90;;;;;;5123786;27;20022;-94
2021/12/12 13:25:35;;;;;;;;;;;9.20;99.90;;;;;;5117871;27;20664;-85
2021/12/12 13:28:26;;;;;;;;;;;9.20;99.90;;;;;;5117307;27;19923;-86
2021/12/12 13:31:17;;;;;;;;;;;9.20;99.90;;;;;;5133555;27;19928;-86
2021/12/12 13:34:03;;;;;;;;;;;9.20;99.90;;;;;;5079499;28;19924;-86
2021/12/12 13:36:34;;;;;;;;;;;9.30;99.90;;;;;;5093915;28;19925;-86
2021/12/12 13:39:09;;;;;;;;;;;9.20;99.90;;;;;;5094129;28;19974;-86
2021/12/12 13:41:53;;;;;;;;;;;9.20;99.90;;;;;;5090614;27;19932;-86
2021/12/12 13:44:34;;;;;;;;;;;9.30;99.90;;;;;;5096817;28;20019;-84
2021/12/12 13:47:24;;;;;;;;;;;9.20;99.90;;;;;;5114204;28;19923;-83
2021/12/12 13:49:58;;;;;;;;;;;9.30;99.90;;;;;;5099853;28;19932;-88
2021/12/12 13:52:40;;;;;;;;;;;9.20;99.90;;;;;;5115956;27;19924;-85
2021/12/12 13:55:26;;;;;;;;;;;;;;;;;;;;;
2021/12/12 13:58:08;;;;;;;;;;;9.30;99.90;;;;;;5099191;28;19928;-86
2021/12/12 14:00:56;;;;;;;;;;;9.30;99.90;;;;;;5081262;28;19927;-85
2021/12/12 14:03:33;;;;;;;;;;;;;;;;;;;;;
2021/12/12 14:06:01;;;;;;;;;;;9.30;99.90;;;;;;5113736;27;19924;-85
2021/12/12 14:08:31;;;;;;;;;;;9.30;99.90;;;;;;5099495;27;19934;-85
2021/12/12 14:11:26;;;;;;;;;;;;;;;;;;;;;
2021/12/12 14:13:54;;;;;;;;;;;9.30;99.90;;;;;;5116737;27;19931;-86
2021/12/12 14:16:25;;;;;;;;;;;9.30;99.90;;;;;;5116813;27;19976;-85
2021/12/12 14:19:10;;;;;;;;;;;9.30;99.90;;;;;;5119492;27;20328;-87
2021/12/12 14:21:46;;;;;;;;;;;9.30;99.90;;;;;;5095942;28;20302;-86
2021/12/12 14:24:35;;;;;;;;;;;9.30;99.90;;;;;;5098165;28;19924;-88
2021/12/12 14:27:12;;;;;;;;;;;9.30;99.90;;;;;;5099169;28;19923;-88
2021/12/12 14:30:01;;;;;;;;;;;9.20;99.90;;;;;;5131485;27;19924;-90
2021/12/12 14:32:56;;;;;;;;;;;;;;;;;;;;;
2021/12/12 14:35:52;;;;;;;;;;;9.20;99.90;;;;;;5096601;27;19930;-87
2021/12/12 14:38:23;;;;;;;;;;;9.20;99.90;;;;;;5110441;27;20012;-87
2021/12/12 14:43:47;;;;;;;;;;;;;;;;;;;;;
2021/12/12 14:49:24;;;;;;;;;;;9.30;99.90;;;;;;5114654;27;19931;-87
2021/12/12 14:51:55;;;;;;;;;;;9.30;99.90;;;;;;5085805;28;19923;-87
2021/12/12 14:57:41;;;;;;;;;;;9.30;99.90;;;;;;5100310;27;20327;-87
2021/12/12 15:03:09;;;;;;;;;;;9.30;99.90;;;;;;5102650;27;19977;-88
2021/12/12 15:06:12;;;;;;;;;;;9.30;99.90;;;;;;5100371;28;20083;-87
2021/12/12 15:08:42;;;;;;;;;;;9.30;99.90;;;;;;5098916;28;19927;-86
2021/12/12 15:11:33;;;;;;;;;;;9.30;99.90;;;;;;5099376;28;19919;-86
2021/12/12 15:13:59;;;;;;;;;;;9.30;99.90;;;;;;5088339;28;20116;-87
2021/12/12 15:16:34;;;;;;;;;;;9.30;99.90;;;;;;5079457;28;20268;-86
2021/12/12 15:19:13;;;;;;;;;;;9.30;99.90;;;;;;5081956;28;19977;-86
2021/12/12 15:25:06;;;;;;;;;;;9.30;99.90;;;;;;5092241;28;20314;-86
2021/12/12 15:27:38;;;;;;;;;;;9.30;99.90;;;;;;5071940;28;19924;-87
2021/12/12 15:30:25;;;;;;;;;;;9.30;99.90;;;;;;5080354;28;22523;-86
2021/12/12 15:33:15;;;;;;;;;;;9.30;99.90;;;;;;5077162;28;19924;-86
2021/12/12 15:35:47;;;;;;;;;;;9.30;99.90;;;;;;5095320;28;19924;-86
2021/12/12 15:38:44;;;;;;;;;;;;;;;;;;;;;
2021/12/12 15:41:33;;;;;;;;;;;;;;;;;;;;;
2021/12/12 15:44:09;;;;;;;;;;;9.30;99.90;;;;;;5095871;28;19924;-86
2021/12/12 15:46:57;;;;;;;;;;;9.30;99.90;;;;;;5076128;28;19978;-87
2021/12/12 15:53:26;;;;;;;;;;;;;;;;;;;;;
2021/12/12 15:56:19;;;;;;;;;;;;;;;;;;;;;
2021/12/12 16:02:24;;;;;;;;;;;;;;;;;;;;;
2021/12/12 16:11:23;;;;;;;;;;;;;;;;;;;;;
2021/12/12 16:14:11;;;;;;;;;;;;;;;;;;;;;
2021/12/12 16:19:34;;;;;;;;;;;9.40;99.90;;;;;;5097926;28;20284;-89
2021/12/12 16:22:26;;;;;;;;;;;9.50;99.90;;;;;;5080201;28;19971;-89
2021/12/12 16:25:21;;;;;;;;;;;9.50;99.90;;;;;;5096716;28;19963;-89